sensor_id;sensor_type;location;lat;lon;timestamp;P1;durP1;ratioP1;P2;durP2;ratioP2
24681;SDS011;12802;53.390;-2.328;2022-11-15T00:01:17;2.55;;;1.30;;
24681;SDS011;12802;53.390;-2.328;2022-11-15T00:04:05;3.83;;;1.25;;
24681;SDS011;12802;53.390;-2.328;2022-11-15T00:06:49;3.33;;;1.42;;
24681;SDS011;12802;53.390;-2.328;2022-11-15T00:09:34;2.28;;;1.40;;
24681;SDS011;12802;53.390;-2.328;2022-11-15T00:12:18;5.93;;;1.50;;
24681;SDS011;12802;53.390;-2.328;2022-11-15T00:15:02;6.00;;;1.15;;
24681;SDS011;12802;53.390;-2.328;2022-11-15T00:17:50;5.72;;;1.35;;
24681;SDS011;12802;53.390;-2.328;2022-11-15T00:20:34;6.18;;;0.95;;
24681;SDS011;12802;53.390;-2.328;2022-11-15T00:23:18;1.88;;;1.00;;
24681;SDS011;12802;53.390;-2.328;2022-11-15T00:26:03;1.90;;;1.13;;
24681;SDS011;12802;53.390;-2.328;2022-11-15T00:28:48;1.13;;;0.68;;
24681;SDS011;12802;53.390;-2.328;2022-11-15T00:31:32;2.97;;;1.00;;
24681;SDS011;12802;53.390;-2.328;2022-11-15T00:34:16;6.38;;;0.93;;
24681;SDS011;12802;53.390;-2.328;2022-11-15T00:37:02;4.05;;;0.60;;
24681;SDS011;12802;53.390;-2.328;2022-11-15T00:39:47;3.72;;;0.80;;
24681;SDS011;12802;53.390;-2.328;2022-11-15T00:42:31;3.38;;;0.93;;
24681;SDS011;12802;53.390;-2.328;2022-11-15T00:45:16;2.78;;;1.33;;
24681;SDS011;12802;53.390;-2.328;2022-11-15T00:48:00;4.03;;;1.05;;
24681;SDS011;12802;53.390;-2.328;2022-11-15T00:50:44;2.03;;;0.93;;
24681;SDS011;12802;53.390;-2.328;2022-11-15T00:53:28;1.60;;;0.60;;
24681;SDS011;12802;53.390;-2.328;2022-11-15T00:56:13;4.03;;;0.85;;
24681;SDS011;12802;53.390;-2.328;2022-11-15T00:58:57;4.47;;;1.45;;
24681;SDS011;12802;53.390;-2.328;2022-11-15T01:01:42;2.45;;;0.88;;
24681;SDS011;12802;53.390;-2.328;2022-11-15T01:04:26;7.28;;;1.42;;
24681;SDS011;12802;53.390;-2.328;2022-11-15T01:07:10;6.13;;;1.30;;
24681;SDS011;12802;53.390;-2.328;2022-11-15T01:09:55;1.73;;;0.77;;
24681;SDS011;12802;53.390;-2.328;2022-11-15T01:12:39;9.52;;;1.17;;
24681;SDS011;12802;53.390;-2.328;2022-11-15T01:15:23;6.15;;;1.17;;
24681;SDS011;12802;53.390;-2.328;2022-11-15T01:18:07;4.68;;;1.40;;
24681;SDS011;12802;53.390;-2.328;2022-11-15T01:20:52;3.65;;;1.35;;
24681;SDS011;12802;53.390;-2.328;2022-11-15T01:23:37;4.47;;;1.52;;
24681;SDS011;12802;53.390;-2.328;2022-11-15T01:26:22;2.30;;;0.73;;
24681;SDS011;12802;53.390;-2.328;2022-11-15T01:29:08;3.13;;;1.10;;
24681;SDS011;12802;53.390;-2.328;2022-11-15T01:31:52;4.05;;;1.38;;
24681;SDS011;12802;53.390;-2.328;2022-11-15T01:34:37;1.60;;;0.93;;
24681;SDS011;12802;53.390;-2.328;2022-11-15T01:37:21;2.88;;;1.05;;
24681;SDS011;12802;53.390;-2.328;2022-11-15T01:40:06;6.18;;;0.85;;
24681;SDS011;12802;53.390;-2.328;2022-11-15T01:42:51;3.58;;;1.02;;
24681;SDS011;12802;53.390;-2.328;2022-11-15T01:45:36;7.57;;;1.48;;
24681;SDS011;12802;53.390;-2.328;2022-11-15T01:48:20;3.15;;;1.55;;
24681;SDS011;12802;53.390;-2.328;2022-11-15T01:51:09;1.55;;;0.52;;
24681;SDS011;12802;53.390;-2.328;2022-11-15T01:53:57;2.47;;;0.93;;
24681;SDS011;12802;53.390;-2.328;2022-11-15T01:56:46;3.00;;;1.17;;
24681;SDS011;12802;53.390;-2.328;2022-11-15T01:59:37;2.60;;;1.38;;
24681;SDS011;12802;53.390;-2.328;2022-11-15T02:02:24;3.60;;;1.20;;
24681;SDS011;12802;53.390;-2.328;2022-11-15T02:05:08;5.28;;;1.63;;
24681;SDS011;12802;53.390;-2.328;2022-11-15T02:07:53;5.97;;;1.48;;
24681;SDS011;12802;53.390;-2.328;2022-11-15T02:10:38;4.60;;;1.55;;
24681;SDS011;12802;53.390;-2.328;2022-11-15T02:13:22;5.50;;;1.20;;
24681;SDS011;12802;53.390;-2.328;2022-11-15T02:19:12;6.65;;;0.95;;
24681;SDS011;12802;53.390;-2.328;2022-11-15T02:43:12;5.38;;;0.98;;
24681;SDS011;12802;53.390;-2.328;2022-11-15T02:49:32;5.20;;;1.45;;
24681;SDS011;12802;53.390;-2.328;2022-11-15T02:52:22;7.50;;;1.27;;
24681;SDS011;12802;53.390;-2.328;2022-11-15T02:59:08;2.30;;;0.93;;
24681;SDS011;12802;53.390;-2.328;2022-11-15T03:13:33;4.30;;;1.52;;
24681;SDS011;12802;53.390;-2.328;2022-11-15T03:22:17;6.97;;;1.23;;
24681;SDS011;12802;53.390;-2.328;2022-11-15T03:25:05;3.40;;;1.20;;
24681;SDS011;12802;53.390;-2.328;2022-11-15T03:27:52;12.95;;;1.38;;
24681;SDS011;12802;53.390;-2.328;2022-11-15T03:30:40;1.92;;;1.25;;
24681;SDS011;12802;53.390;-2.328;2022-11-15T03:33:25;2.28;;;0.88;;
24681;SDS011;12802;53.390;-2.328;2022-11-15T03:36:11;2.78;;;1.13;;
24681;SDS011;12802;53.390;-2.328;2022-11-15T03:38:56;4.80;;;1.40;;
24681;SDS011;12802;53.390;-2.328;2022-11-15T03:45:08;6.05;;;1.30;;
24681;SDS011;12802;53.390;-2.328;2022-11-15T03:48:15;2.22;;;0.80;;
24681;SDS011;12802;53.390;-2.328;2022-11-15T03:51:06;3.38;;;1.23;;
24681;SDS011;12802;53.390;-2.328;2022-11-15T03:53:51;5.07;;;1.38;;
24681;SDS011;12802;53.390;-2.328;2022-11-15T03:56:35;2.75;;;1.17;;
24681;SDS011;12802;53.390;-2.328;2022-11-15T03:59:19;5.18;;;1.15;;
24681;SDS011;12802;53.390;-2.328;2022-11-15T04:02:04;7.80;;;1.13;;
24681;SDS011;12802;53.390;-2.328;2022-11-15T04:04:48;2.60;;;1.05;;
24681;SDS011;12802;53.390;-2.328;2022-11-15T04:07:33;4.60;;;1.38;;
24681;SDS011;12802;53.390;-2.328;2022-11-15T04:10:17;2.83;;;1.05;;
24681;SDS011;12802;53.390;-2.328;2022-11-15T04:13:02;13.95;;;1.30;;
24681;SDS011;12802;53.390;-2.328;2022-11-15T04:15:46;5.13;;;1.85;;
24681;SDS011;12802;53.390;-2.328;2022-11-15T04:18:30;5.82;;;1.30;;
24681;SDS011;12802;53.390;-2.328;2022-11-15T04:21:14;2.53;;;1.35;;
24681;SDS011;12802;53.390;-2.328;2022-11-15T04:24:17;4.57;;;1.23;;
24681;SDS011;12802;53.390;-2.328;2022-11-15T04:27:02;3.78;;;1.38;;
24681;SDS011;12802;53.390;-2.328;2022-11-15T04:29:47;6.35;;;1.30;;
24681;SDS011;12802;53.390;-2.328;2022-11-15T04:32:31;4.28;;;1.35;;
24681;SDS011;12802;53.390;-2.328;2022-11-15T04:35:15;2.22;;;0.95;;
24681;SDS011;12802;53.390;-2.328;2022-11-15T04:38:00;6.18;;;1.10;;
24681;SDS011;12802;53.390;-2.328;2022-11-15T04:40:45;5.22;;;1.10;;
24681;SDS011;12802;53.390;-2.328;2022-11-15T04:43:30;4.57;;;1.27;;
24681;SDS011;12802;53.390;-2.328;2022-11-15T04:46:14;2.53;;;0.95;;
24681;SDS011;12802;53.390;-2.328;2022-11-15T04:49:00;6.63;;;1.38;;
24681;SDS011;12802;53.390;-2.328;2022-11-15T04:51:45;4.45;;;1.25;;
24681;SDS011;12802;53.390;-2.328;2022-11-15T04:54:30;7.88;;;1.70;;
24681;SDS011;12802;53.390;-2.328;2022-11-15T04:57:14;9.73;;;2.03;;
24681;SDS011;12802;53.390;-2.328;2022-11-15T04:59:59;1.80;;;0.90;;
24681;SDS011;12802;53.390;-2.328;2022-11-15T05:02:43;7.03;;;1.48;;
24681;SDS011;12802;53.390;-2.328;2022-11-15T05:05:46;2.88;;;1.15;;
24681;SDS011;12802;53.390;-2.328;2022-11-15T05:08:30;5.13;;;0.88;;
24681;SDS011;12802;53.390;-2.328;2022-11-15T05:11:14;1.75;;;1.02;;
24681;SDS011;12802;53.390;-2.328;2022-11-15T05:13:58;2.05;;;1.15;;
24681;SDS011;12802;53.390;-2.328;2022-11-15T05:16:42;4.22;;;1.17;;
24681;SDS011;12802;53.390;-2.328;2022-11-15T05:19:27;5.68;;;1.27;;
24681;SDS011;12802;53.390;-2.328;2022-11-15T05:22:11;1.83;;;1.08;;
24681;SDS011;12802;53.390;-2.328;2022-11-15T05:24:56;5.10;;;1.80;;
24681;SDS011;12802;53.390;-2.328;2022-11-15T05:27:40;1.98;;;0.90;;
24681;SDS011;12802;53.390;-2.328;2022-11-15T05:30:25;1.08;;;0.68;;
24681;SDS011;12802;53.390;-2.328;2022-11-15T05:33:09;3.67;;;1.20;;
24681;SDS011;12802;53.390;-2.328;2022-11-15T05:39:03;1.00;;;0.63;;
24681;SDS011;12802;53.390;-2.328;2022-11-15T05:41:50;0.70;;;0.50;;
24681;SDS011;12802;53.390;-2.328;2022-11-15T05:44:41;3.13;;;0.80;;
24681;SDS011;12802;53.390;-2.328;2022-11-15T05:47:29;3.23;;;0.50;;
24681;SDS011;12802;53.390;-2.328;2022-11-15T05:50:15;0.45;;;0.43;;
24681;SDS011;12802;53.390;-2.328;2022-11-15T05:53:02;3.15;;;0.45;;
24681;SDS011;12802;53.390;-2.328;2022-11-15T05:55:46;1.45;;;0.50;;
24681;SDS011;12802;53.390;-2.328;2022-11-15T05:58:34;0.70;;;0.38;;
24681;SDS011;12802;53.390;-2.328;2022-11-15T06:01:20;0.82;;;0.50;;
24681;SDS011;12802;53.390;-2.328;2022-11-15T06:04:05;2.55;;;1.20;;
24681;SDS011;12802;53.390;-2.328;2022-11-15T06:06:49;0.77;;;0.43;;
24681;SDS011;12802;53.390;-2.328;2022-11-15T06:09:33;1.13;;;0.38;;
24681;SDS011;12802;53.390;-2.328;2022-11-15T06:12:18;0.82;;;0.35;;
24681;SDS011;12802;53.390;-2.328;2022-11-15T06:15:02;0.40;;;0.20;;
24681;SDS011;12802;53.390;-2.328;2022-11-15T06:17:46;0.95;;;0.60;;
24681;SDS011;12802;53.390;-2.328;2022-11-15T06:20:30;2.03;;;0.63;;
24681;SDS011;12802;53.390;-2.328;2022-11-15T06:23:15;1.42;;;0.50;;
24681;SDS011;12802;53.390;-2.328;2022-11-15T06:26:00;1.10;;;0.30;;
24681;SDS011;12802;53.390;-2.328;2022-11-15T06:28:46;0.57;;;0.47;;
24681;SDS011;12802;53.390;-2.328;2022-11-15T06:31:30;2.58;;;0.52;;
24681;SDS011;12802;53.390;-2.328;2022-11-15T06:34:14;7.55;;;0.70;;
24681;SDS011;12802;53.390;-2.328;2022-11-15T06:36:58;1.13;;;0.75;;
24681;SDS011;12802;53.390;-2.328;2022-11-15T06:39:43;1.83;;;0.50;;
24681;SDS011;12802;53.390;-2.328;2022-11-15T06:42:27;3.47;;;0.60;;
24681;SDS011;12802;53.390;-2.328;2022-11-15T06:45:11;1.77;;;0.80;;
24681;SDS011;12802;53.390;-2.328;2022-11-15T06:47:55;4.80;;;0.75;;
24681;SDS011;12802;53.390;-2.328;2022-11-15T06:50:40;3.15;;;1.25;;
24681;SDS011;12802;53.390;-2.328;2022-11-15T06:53:26;2.50;;;1.02;;
24681;SDS011;12802;53.390;-2.328;2022-11-15T06:56:11;3.80;;;0.90;;
24681;SDS011;12802;53.390;-2.328;2022-11-15T06:58:55;8.40;;;0.90;;
24681;SDS011;12802;53.390;-2.328;2022-11-15T07:01:39;1.17;;;0.60;;
24681;SDS011;12802;53.390;-2.328;2022-11-15T07:04:23;1.30;;;0.70;;
24681;SDS011;12802;53.390;-2.328;2022-11-15T07:07:07;2.42;;;1.30;;
24681;SDS011;12802;53.390;-2.328;2022-11-15T07:09:52;1.20;;;0.85;;
24681;SDS011;12802;53.390;-2.328;2022-11-15T07:12:36;2.17;;;0.68;;
24681;SDS011;12802;53.390;-2.328;2022-11-15T07:15:22;2.47;;;0.60;;
24681;SDS011;12802;53.390;-2.328;2022-11-15T07:18:08;2.75;;;0.98;;
24681;SDS011;12802;53.390;-2.328;2022-11-15T07:20:52;0.82;;;0.73;;
24681;SDS011;12802;53.390;-2.328;2022-11-15T07:23:37;1.17;;;0.52;;
24681;SDS011;12802;53.390;-2.328;2022-11-15T07:26:22;1.35;;;0.70;;
24681;SDS011;12802;53.390;-2.328;2022-11-15T07:29:07;0.77;;;0.45;;
24681;SDS011;12802;53.390;-2.328;2022-11-15T07:31:51;2.17;;;0.85;;
24681;SDS011;12802;53.390;-2.328;2022-11-15T07:34:35;2.92;;;0.60;;
24681;SDS011;12802;53.390;-2.328;2022-11-15T07:37:20;1.02;;;0.52;;
24681;SDS011;12802;53.390;-2.328;2022-11-15T07:40:04;3.53;;;0.82;;
24681;SDS011;12802;53.390;-2.328;2022-11-15T07:42:48;0.38;;;0.30;;
24681;SDS011;12802;53.390;-2.328;2022-11-15T07:45:40;1.38;;;0.60;;
24681;SDS011;12802;53.390;-2.328;2022-11-15T07:48:26;8.90;;;0.70;;
24681;SDS011;12802;53.390;-2.328;2022-11-15T07:51:14;0.98;;;0.50;;
24681;SDS011;12802;53.390;-2.328;2022-11-15T07:54:00;0.98;;;0.47;;
24681;SDS011;12802;53.390;-2.328;2022-11-15T07:56:44;2.00;;;1.00;;
24681;SDS011;12802;53.390;-2.328;2022-11-15T07:59:29;0.80;;;0.30;;
24681;SDS011;12802;53.390;-2.328;2022-11-15T08:02:14;11.23;;;1.10;;
24681;SDS011;12802;53.390;-2.328;2022-11-15T08:05:01;0.93;;;0.38;;
24681;SDS011;12802;53.390;-2.328;2022-11-15T08:07:45;1.13;;;0.55;;
24681;SDS011;12802;53.390;-2.328;2022-11-15T08:10:30;0.73;;;0.20;;
24681;SDS011;12802;53.390;-2.328;2022-11-15T08:13:14;3.10;;;0.40;;
24681;SDS011;12802;53.390;-2.328;2022-11-15T08:15:59;2.30;;;0.43;;
24681;SDS011;12802;53.390;-2.328;2022-11-15T08:18:44;1.08;;;0.40;;
24681;SDS011;12802;53.390;-2.328;2022-11-15T08:21:29;0.40;;;0.35;;
24681;SDS011;12802;53.390;-2.328;2022-11-15T08:24:14;1.75;;;0.50;;
24681;SDS011;12802;53.390;-2.328;2022-11-15T08:26:58;1.35;;;0.32;;
24681;SDS011;12802;53.390;-2.328;2022-11-15T08:29:43;0.60;;;0.30;;
24681;SDS011;12802;53.390;-2.328;2022-11-15T08:32:28;0.20;;;0.10;;
24681;SDS011;12802;53.390;-2.328;2022-11-15T08:35:14;0.60;;;0.30;;
24681;SDS011;12802;53.390;-2.328;2022-11-15T08:37:58;2.47;;;0.50;;
24681;SDS011;12802;53.390;-2.328;2022-11-15T08:40:43;1.40;;;0.20;;
24681;SDS011;12802;53.390;-2.328;2022-11-15T08:43:27;0.57;;;0.30;;
24681;SDS011;12802;53.390;-2.328;2022-11-15T08:46:12;0.40;;;0.20;;
24681;SDS011;12802;53.390;-2.328;2022-11-15T08:48:57;1.75;;;0.35;;
24681;SDS011;12802;53.390;-2.328;2022-11-15T08:51:42;0.85;;;0.28;;
24681;SDS011;12802;53.390;-2.328;2022-11-15T08:54:26;0.17;;;0.17;;
24681;SDS011;12802;53.390;-2.328;2022-11-15T08:57:10;0.43;;;0.13;;
24681;SDS011;12802;53.390;-2.328;2022-11-15T08:59:55;0.43;;;0.17;;
24681;SDS011;12802;53.390;-2.328;2022-11-15T09:02:39;0.35;;;0.20;;
24681;SDS011;12802;53.390;-2.328;2022-11-15T09:05:24;0.08;;;0.00;;
24681;SDS011;12802;53.390;-2.328;2022-11-15T09:08:09;0.32;;;0.22;;
24681;SDS011;12802;53.390;-2.328;2022-11-15T09:10:55;0.10;;;0.03;;
24681;SDS011;12802;53.390;-2.328;2022-11-15T09:13:40;1.65;;;0.50;;
24681;SDS011;12802;53.390;-2.328;2022-11-15T09:16:24;1.08;;;0.15;;
24681;SDS011;12802;53.390;-2.328;2022-11-15T09:19:08;1.08;;;0.28;;
24681;SDS011;12802;53.390;-2.328;2022-11-15T09:21:52;0.77;;;0.22;;
24681;SDS011;12802;53.390;-2.328;2022-11-15T09:24:37;0.10;;;0.00;;
24681;SDS011;12802;53.390;-2.328;2022-11-15T09:27:22;0.47;;;0.25;;
24681;SDS011;12802;53.390;-2.328;2022-11-15T09:30:06;0.00;;;0.00;;
24681;SDS011;12802;53.390;-2.328;2022-11-15T09:32:51;0.30;;;0.17;;
24681;SDS011;12802;53.390;-2.328;2022-11-15T09:35:35;0.15;;;0.15;;
24681;SDS011;12802;53.390;-2.328;2022-11-15T09:38:20;0.75;;;0.20;;
24681;SDS011;12802;53.390;-2.328;2022-11-15T09:50:19;0.40;;;0.20;;
24681;SDS011;12802;53.390;-2.328;2022-11-15T09:52:56;0.43;;;0.10;;
24681;SDS011;12802;53.390;-2.328;2022-11-15T09:55:24;0.88;;;0.10;;
24681;SDS011;12802;53.390;-2.328;2022-11-15T09:58:02;0.38;;;0.08;;
24681;SDS011;12802;53.390;-2.328;2022-11-15T10:00:39;0.75;;;0.30;;
24681;SDS011;12802;53.390;-2.328;2022-11-15T10:03:10;0.10;;;0.10;;
24681;SDS011;12802;53.390;-2.328;2022-11-15T10:05:43;0.38;;;0.10;;
24681;SDS011;12802;53.390;-2.328;2022-11-15T10:13:28;0.08;;;0.05;;
24681;SDS011;12802;53.390;-2.328;2022-11-15T10:18:56;0.30;;;0.15;;
24681;SDS011;12802;53.390;-2.328;2022-11-15T10:21:56;0.15;;;0.08;;
24681;SDS011;12802;53.390;-2.328;2022-11-15T10:24:50;0.60;;;0.13;;
24681;SDS011;12802;53.390;-2.328;2022-11-15T10:27:44;0.28;;;0.20;;
24681;SDS011;12802;53.390;-2.328;2022-11-15T10:30:30;0.88;;;0.20;;
24681;SDS011;12802;53.390;-2.328;2022-11-15T10:33:12;0.88;;;0.52;;
24681;SDS011;12802;53.390;-2.328;2022-11-15T10:35:42;2.42;;;0.22;;
24681;SDS011;12802;53.390;-2.328;2022-11-15T10:38:10;1.08;;;0.10;;
24681;SDS011;12802;53.390;-2.328;2022-11-15T10:40:37;0.60;;;0.17;;
24681;SDS011;12802;53.390;-2.328;2022-11-15T10:45:36;0.20;;;0.10;;
24681;SDS011;12802;53.390;-2.328;2022-11-15T10:50:38;14.60;;;2.25;;
24681;SDS011;12802;53.390;-2.328;2022-11-15T10:53:11;0.10;;;0.00;;
24681;SDS011;12802;53.390;-2.328;2022-11-15T10:55:49;0.90;;;0.28;;
24681;SDS011;12802;53.390;-2.328;2022-11-15T10:58:31;0.08;;;0.00;;
24681;SDS011;12802;53.390;-2.328;2022-11-15T11:01:10;0.00;;;0.00;;
24681;SDS011;12802;53.390;-2.328;2022-11-15T11:04:07;1.10;;;0.10;;
24681;SDS011;12802;53.390;-2.328;2022-11-15T11:06:47;1.33;;;0.28;;
24681;SDS011;12802;53.390;-2.328;2022-11-15T11:12:04;0.45;;;0.10;;
24681;SDS011;12802;53.390;-2.328;2022-11-15T11:14:32;0.20;;;0.10;;
24681;SDS011;12802;53.390;-2.328;2022-11-15T11:25:26;0.40;;;0.22;;
24681;SDS011;12802;53.390;-2.328;2022-11-15T11:31:02;0.40;;;0.10;;
24681;SDS011;12802;53.390;-2.328;2022-11-15T11:36:11;5.60;;;1.80;;
24681;SDS011;12802;53.390;-2.328;2022-11-15T11:41:53;4.03;;;0.85;;
24681;SDS011;12802;53.390;-2.328;2022-11-15T11:44:24;0.30;;;0.17;;
24681;SDS011;12802;53.390;-2.328;2022-11-15T11:46:56;1.58;;;0.60;;
24681;SDS011;12802;53.390;-2.328;2022-11-15T11:52:17;4.90;;;0.22;;
24681;SDS011;12802;53.390;-2.328;2022-11-15T11:54:58;0.40;;;0.20;;
24681;SDS011;12802;53.390;-2.328;2022-11-15T11:59:54;0.40;;;0.20;;
24681;SDS011;12802;53.390;-2.328;2022-11-15T12:02:41;0.75;;;0.40;;
24681;SDS011;12802;53.390;-2.328;2022-11-15T12:05:20;0.70;;;0.43;;
24681;SDS011;12802;53.390;-2.328;2022-11-15T12:07:53;0.90;;;0.30;;
24681;SDS011;12802;53.390;-2.328;2022-11-15T12:10:28;0.88;;;0.40;;
24681;SDS011;12802;53.390;-2.328;2022-11-15T12:13:02;1.00;;;0.50;;
24681;SDS011;12802;53.390;-2.328;2022-11-15T12:15:43;0.68;;;0.43;;
24681;SDS011;12802;53.390;-2.328;2022-11-15T12:18:15;3.53;;;0.68;;
24681;SDS011;12802;53.390;-2.328;2022-11-15T12:20:58;2.40;;;0.35;;
24681;SDS011;12802;53.390;-2.328;2022-11-15T12:23:29;1.65;;;0.50;;
24681;SDS011;12802;53.390;-2.328;2022-11-15T12:26:03;0.93;;;0.40;;
24681;SDS011;12802;53.390;-2.328;2022-11-15T12:28:35;1.90;;;0.40;;
24681;SDS011;12802;53.390;-2.328;2022-11-15T12:31:23;0.95;;;0.35;;
24681;SDS011;12802;53.390;-2.328;2022-11-15T12:33:58;0.68;;;0.20;;
24681;SDS011;12802;53.390;-2.328;2022-11-15T12:36:54;0.73;;;0.52;;
24681;SDS011;12802;53.390;-2.328;2022-11-15T12:39:21;0.57;;;0.47;;
24681;SDS011;12802;53.390;-2.328;2022-11-15T12:45:23;2.80;;;1.23;;
24681;SDS011;12802;53.390;-2.328;2022-11-15T12:58:41;2.03;;;0.90;;
24681;SDS011;12802;53.390;-2.328;2022-11-15T13:12:06;9.40;;;1.58;;
24681;SDS011;12802;53.390;-2.328;2022-11-15T13:19:47;2.28;;;1.30;;
24681;SDS011;12802;53.390;-2.328;2022-11-15T13:22:45;4.40;;;1.38;;
24681;SDS011;12802;53.390;-2.328;2022-11-15T13:30:40;1.65;;;1.10;;
24681;SDS011;12802;53.390;-2.328;2022-11-15T13:35:53;4.53;;;1.27;;
24681;SDS011;12802;53.390;-2.328;2022-11-15T13:38:26;5.38;;;1.52;;
24681;SDS011;12802;53.390;-2.328;2022-11-15T13:40:54;5.60;;;1.63;;
24681;SDS011;12802;53.390;-2.328;2022-11-15T13:46:09;3.90;;;1.23;;
24681;SDS011;12802;53.390;-2.328;2022-11-15T13:48:36;5.65;;;1.95;;
24681;SDS011;12802;53.390;-2.328;2022-11-15T13:51:02;5.95;;;1.70;;
24681;SDS011;12802;53.390;-2.328;2022-11-15T13:53:33;4.90;;;1.83;;
24681;SDS011;12802;53.390;-2.328;2022-11-15T13:56:02;8.03;;;1.67;;
24681;SDS011;12802;53.390;-2.328;2022-11-15T13:58:29;3.45;;;1.35;;
24681;SDS011;12802;53.390;-2.328;2022-11-15T14:00:59;11.32;;;2.25;;
24681;SDS011;12802;53.390;-2.328;2022-11-15T14:03:27;15.00;;;2.33;;
24681;SDS011;12802;53.390;-2.328;2022-11-15T14:06:09;6.33;;;1.87;;
24681;SDS011;12802;53.390;-2.328;2022-11-15T14:11:52;8.75;;;2.28;;
24681;SDS011;12802;53.390;-2.328;2022-11-15T14:14:19;9.50;;;2.90;;
24681;SDS011;12802;53.390;-2.328;2022-11-15T14:17:32;14.95;;;3.10;;
24681;SDS011;12802;53.390;-2.328;2022-11-15T14:19:54;9.98;;;2.58;;
24681;SDS011;12802;53.390;-2.328;2022-11-15T14:22:21;8.77;;;2.28;;
24681;SDS011;12802;53.390;-2.328;2022-11-15T14:25:03;6.00;;;2.22;;
24681;SDS011;12802;53.390;-2.328;2022-11-15T14:27:30;14.65;;;3.20;;
24681;SDS011;12802;53.390;-2.328;2022-11-15T14:29:56;9.75;;;2.10;;
24681;SDS011;12802;53.390;-2.328;2022-11-15T14:32:23;8.38;;;2.20;;
24681;SDS011;12802;53.390;-2.328;2022-11-15T14:34:55;11.77;;;2.50;;
24681;SDS011;12802;53.390;-2.328;2022-11-15T14:37:28;6.78;;;3.08;;
24681;SDS011;12802;53.390;-2.328;2022-11-15T14:40:00;7.32;;;2.17;;
24681;SDS011;12802;53.390;-2.328;2022-11-15T14:42:27;6.60;;;2.03;;
24681;SDS011;12802;53.390;-2.328;2022-11-15T14:44:53;12.23;;;2.17;;
24681;SDS011;12802;53.390;-2.328;2022-11-15T14:47:19;4.00;;;1.58;;
24681;SDS011;12802;53.390;-2.328;2022-11-15T14:49:45;9.88;;;2.42;;
24681;SDS011;12802;53.390;-2.328;2022-11-15T14:52:28;12.45;;;2.05;;
24681;SDS011;12802;53.390;-2.328;2022-11-15T14:54:59;10.65;;;2.45;;
24681;SDS011;12802;53.390;-2.328;2022-11-15T14:57:27;10.23;;;2.85;;
24681;SDS011;12802;53.390;-2.328;2022-11-15T14:59:53;11.88;;;2.22;;
24681;SDS011;12802;53.390;-2.328;2022-11-15T15:02:21;7.30;;;1.92;;
24681;SDS011;12802;53.390;-2.328;2022-11-15T15:04:50;12.05;;;2.72;;
24681;SDS011;12802;53.390;-2.328;2022-11-15T15:07:16;5.28;;;2.17;;
24681;SDS011;12802;53.390;-2.328;2022-11-15T15:09:43;12.00;;;2.13;;
24681;SDS011;12802;53.390;-2.328;2022-11-15T15:12:14;9.50;;;2.22;;
24681;SDS011;12802;53.390;-2.328;2022-11-15T15:14:45;6.40;;;2.45;;
24681;SDS011;12802;53.390;-2.328;2022-11-15T15:17:13;8.77;;;2.15;;
24681;SDS011;12802;53.390;-2.328;2022-11-15T15:19:39;8.20;;;2.20;;
24681;SDS011;12802;53.390;-2.328;2022-11-15T15:22:05;12.32;;;2.20;;
24681;SDS011;12802;53.390;-2.328;2022-11-15T15:24:34;9.75;;;2.65;;
24681;SDS011;12802;53.390;-2.328;2022-11-15T15:27:00;4.13;;;1.35;;
24681;SDS011;12802;53.390;-2.328;2022-11-15T15:29:25;7.25;;;1.90;;
24681;SDS011;12802;53.390;-2.328;2022-11-15T15:31:51;10.85;;;2.70;;
24681;SDS011;12802;53.390;-2.328;2022-11-15T15:34:17;9.02;;;1.85;;
24681;SDS011;12802;53.390;-2.328;2022-11-15T15:36:42;13.23;;;2.67;;
24681;SDS011;12802;53.390;-2.328;2022-11-15T15:39:09;7.90;;;2.17;;
24681;SDS011;12802;53.390;-2.328;2022-11-15T15:41:36;10.02;;;2.35;;
24681;SDS011;12802;53.390;-2.328;2022-11-15T15:44:02;14.48;;;2.17;;
24681;SDS011;12802;53.390;-2.328;2022-11-15T15:46:27;6.32;;;2.70;;
24681;SDS011;12802;53.390;-2.328;2022-11-15T15:48:53;15.73;;;3.15;;
24681;SDS011;12802;53.390;-2.328;2022-11-15T15:51:19;12.25;;;2.25;;
24681;SDS011;12802;53.390;-2.328;2022-11-15T15:53:45;11.20;;;2.78;;
24681;SDS011;12802;53.390;-2.328;2022-11-15T15:56:11;7.10;;;1.85;;
24681;SDS011;12802;53.390;-2.328;2022-11-15T15:58:36;11.48;;;3.15;;
24681;SDS011;12802;53.390;-2.328;2022-11-15T16:01:02;5.88;;;2.30;;
24681;SDS011;12802;53.390;-2.328;2022-11-15T16:03:28;5.70;;;1.75;;
24681;SDS011;12802;53.390;-2.328;2022-11-15T16:05:54;6.78;;;2.35;;
24681;SDS011;12802;53.390;-2.328;2022-11-15T16:08:21;6.63;;;3.08;;
24681;SDS011;12802;53.390;-2.328;2022-11-15T16:10:48;9.52;;;2.38;;
24681;SDS011;12802;53.390;-2.328;2022-11-15T16:13:14;12.98;;;2.70;;
24681;SDS011;12802;53.390;-2.328;2022-11-15T16:15:40;8.07;;;1.85;;
24681;SDS011;12802;53.390;-2.328;2022-11-15T16:18:17;7.85;;;2.75;;
24681;SDS011;12802;53.390;-2.328;2022-11-15T16:20:44;8.70;;;2.92;;
24681;SDS011;12802;53.390;-2.328;2022-11-15T16:23:15;9.65;;;3.13;;
24681;SDS011;12802;53.390;-2.328;2022-11-15T16:28:31;11.57;;;2.72;;
24681;SDS011;12802;53.390;-2.328;2022-11-15T16:31:05;6.18;;;2.33;;
24681;SDS011;12802;53.390;-2.328;2022-11-15T16:33:33;8.55;;;3.28;;
24681;SDS011;12802;53.390;-2.328;2022-11-15T16:36:00;6.93;;;2.55;;
24681;SDS011;12802;53.390;-2.328;2022-11-15T16:38:26;7.28;;;2.65;;
24681;SDS011;12802;53.390;-2.328;2022-11-15T16:40:52;10.55;;;3.15;;
24681;SDS011;12802;53.390;-2.328;2022-11-15T16:43:18;11.80;;;3.50;;
24681;SDS011;12802;53.390;-2.328;2022-11-15T16:45:44;12.35;;;3.28;;
24681;SDS011;12802;53.390;-2.328;2022-11-15T16:48:28;11.73;;;3.38;;
24681;SDS011;12802;53.390;-2.328;2022-11-15T16:50:54;13.05;;;3.40;;
24681;SDS011;12802;53.390;-2.328;2022-11-15T16:53:21;5.95;;;2.20;;
24681;SDS011;12802;53.390;-2.328;2022-11-15T16:55:47;6.25;;;2.63;;
24681;SDS011;12802;53.390;-2.328;2022-11-15T16:58:13;11.57;;;2.20;;
24681;SDS011;12802;53.390;-2.328;2022-11-15T17:00:39;7.82;;;2.63;;
24681;SDS011;12802;53.390;-2.328;2022-11-15T17:03:05;8.38;;;2.47;;
24681;SDS011;12802;53.390;-2.328;2022-11-15T17:05:31;5.03;;;2.17;;
24681;SDS011;12802;53.390;-2.328;2022-11-15T17:07:57;8.77;;;2.25;;
24681;SDS011;12802;53.390;-2.328;2022-11-15T17:10:24;6.55;;;2.58;;
24681;SDS011;12802;53.390;-2.328;2022-11-15T17:12:51;13.60;;;2.60;;
24681;SDS011;12802;53.390;-2.328;2022-11-15T17:15:19;9.80;;;2.67;;
24681;SDS011;12802;53.390;-2.328;2022-11-15T17:17:49;6.68;;;3.28;;
24681;SDS011;12802;53.390;-2.328;2022-11-15T17:20:17;11.02;;;3.42;;
24681;SDS011;12802;53.390;-2.328;2022-11-15T17:22:44;9.70;;;3.83;;
24681;SDS011;12802;53.390;-2.328;2022-11-15T17:25:11;10.88;;;3.95;;
24681;SDS011;12802;53.390;-2.328;2022-11-15T17:27:38;7.43;;;3.08;;
24681;SDS011;12802;53.390;-2.328;2022-11-15T17:30:04;6.38;;;2.47;;
24681;SDS011;12802;53.390;-2.328;2022-11-15T17:32:30;11.75;;;3.63;;
24681;SDS011;12802;53.390;-2.328;2022-11-15T17:34:56;9.55;;;2.40;;
24681;SDS011;12802;53.390;-2.328;2022-11-15T17:37:22;8.75;;;3.17;;
24681;SDS011;12802;53.390;-2.328;2022-11-15T17:39:48;5.07;;;2.83;;
24681;SDS011;12802;53.390;-2.328;2022-11-15T17:42:14;6.93;;;2.88;;
24681;SDS011;12802;53.390;-2.328;2022-11-15T17:44:39;7.63;;;2.50;;
24681;SDS011;12802;53.390;-2.328;2022-11-15T17:47:05;6.20;;;2.53;;
24681;SDS011;12802;53.390;-2.328;2022-11-15T17:49:32;9.25;;;2.05;;
24681;SDS011;12802;53.390;-2.328;2022-11-15T17:52:02;5.40;;;2.13;;
24681;SDS011;12802;53.390;-2.328;2022-11-15T17:54:28;11.93;;;2.70;;
24681;SDS011;12802;53.390;-2.328;2022-11-15T17:56:53;5.35;;;2.30;;
24681;SDS011;12802;53.390;-2.328;2022-11-15T17:59:19;5.88;;;2.17;;
24681;SDS011;12802;53.390;-2.328;2022-11-15T18:01:45;9.88;;;2.63;;
24681;SDS011;12802;53.390;-2.328;2022-11-15T18:04:11;11.85;;;3.25;;
24681;SDS011;12802;53.390;-2.328;2022-11-15T18:06:39;14.52;;;2.60;;
24681;SDS011;12802;53.390;-2.328;2022-11-15T18:09:05;12.75;;;2.55;;
24681;SDS011;12802;53.390;-2.328;2022-11-15T18:14:00;6.38;;;2.90;;